createdAt,value
2018-12-25T00:00:37.503Z,1028.78
2018-12-25T00:01:38.206Z,1028.77
2018-12-25T00:02:38.851Z,1028.76
2018-12-25T00:03:39.549Z,1028.75
2018-12-25T00:04:40.208Z,1028.73
2018-12-25T00:05:40.887Z,1028.68
2018-12-25T00:06:41.538Z,1028.72
2018-12-25T00:07:42.243Z,1028.73
2018-12-25T00:08:42.890Z,1028.73
2018-12-25T00:09:43.587Z,1028.69
2018-12-25T00:10:44.228Z,1028.77
2018-12-25T00:11:44.924Z,1028.71
2018-12-25T00:12:45.577Z,1028.73
2018-12-25T00:13:46.266Z,1028.72
2018-12-25T00:14:46.919Z,1028.71
2018-12-25T00:15:47.629Z,1028.73
2018-12-25T00:16:48.270Z,1028.76
2018-12-25T00:17:48.965Z,1028.73
2018-12-25T00:18:49.639Z,1028.74
2018-12-25T00:19:50.309Z,1028.74
2018-12-25T00:20:50.999Z,1028.76
2018-12-25T00:21:51.757Z,1028.79
2018-12-25T00:22:52.399Z,1028.71
2018-12-25T00:23:53.098Z,1028.68
2018-12-25T00:24:53.752Z,1028.72
2018-12-25T00:25:54.437Z,1028.70
2018-12-25T00:26:55.094Z,1028.73
2018-12-25T00:27:55.796Z,1028.74
2018-12-25T00:28:56.445Z,1028.73
2018-12-25T00:29:57.249Z,1028.75
2018-12-25T00:30:57.904Z,1028.80
2018-12-25T00:31:58.581Z,1028.82
2018-12-25T00:32:59.233Z,1028.85
2018-12-25T00:33:59.932Z,1028.86
2018-12-25T00:35:00.575Z,1028.90
2018-12-25T00:36:01.275Z,1028.86
2018-12-25T00:37:01.930Z,1028.89
2018-12-25T00:38:02.620Z,1028.90
2018-12-25T00:39:03.260Z,1028.87
2018-12-25T00:40:03.961Z,1028.87
2018-12-25T00:41:04.641Z,1028.86
2018-12-25T00:42:05.413Z,1028.84
2018-12-25T00:43:06.061Z,1028.86
2018-12-25T00:44:06.755Z,1028.89
2018-12-25T00:45:07.498Z,1028.91
2018-12-25T00:46:08.099Z,1028.90
2018-12-25T00:47:08.762Z,1028.94
2018-12-25T00:48:09.829Z,1028.97
2018-12-25T00:49:14.778Z,1028.98
2018-12-25T00:50:12.120Z,1028.93
2018-12-25T00:51:12.769Z,1028.98
2018-12-25T00:52:13.470Z,1028.97
2018-12-25T00:53:14.135Z,1028.95
2018-12-25T00:54:14.806Z,1028.95
2018-12-25T00:55:15.459Z,1028.94
2018-12-25T00:56:16.156Z,1028.98
2018-12-25T00:57:16.805Z,1028.95
2018-12-25T00:58:17.501Z,1029.01
2018-12-25T00:59:18.151Z,1028.95
2018-12-25T01:00:18.850Z,1028.93
2018-12-25T01:01:19.495Z,1028.98
2018-12-25T01:02:20.187Z,1028.98
2018-12-25T01:03:20.839Z,1028.98
2018-12-25T01:04:21.616Z,1028.94
2018-12-25T01:05:22.185Z,1028.96
2018-12-25T01:06:22.883Z,1028.98
2018-12-25T01:07:23.529Z,1028.98
2018-12-25T01:08:24.229Z,1029.00
2018-12-25T01:09:24.873Z,1029.04
2018-12-25T01:10:25.564Z,1028.96
2018-12-25T01:11:26.218Z,1029.01
2018-12-25T01:12:26.920Z,1028.99
2018-12-25T01:13:27.562Z,1029.00
2018-12-25T01:14:28.285Z,1028.97
2018-12-25T01:15:28.908Z,1029.01
2018-12-25T01:16:29.607Z,1028.95
2018-12-25T01:17:30.311Z,1028.94
2018-12-25T01:18:31.359Z,1028.92
2018-12-25T01:19:32.024Z,1028.96
2018-12-25T01:20:32.702Z,1028.99
2018-12-25T01:21:33.363Z,1028.98
2018-12-25T01:22:34.158Z,1028.97
2018-12-25T01:23:34.800Z,1028.97
2018-12-25T01:24:35.470Z,1028.93
2018-12-25T01:25:36.126Z,1028.96
2018-12-25T01:26:36.822Z,1028.97
2018-12-25T01:27:37.471Z,1028.92
2018-12-25T01:28:38.162Z,1028.90
2018-12-25T01:29:38.803Z,1028.90
2018-12-25T01:30:39.509Z,1028.87
2018-12-25T01:31:40.569Z,1028.82
2018-12-25T01:32:41.261Z,1028.87
2018-12-25T01:33:41.910Z,1028.84
2018-12-25T01:34:42.606Z,1028.87
2018-12-25T01:35:43.259Z,1028.95
2018-12-25T01:36:43.946Z,1028.93
2018-12-25T01:37:44.605Z,1028.94
2018-12-25T01:38:45.379Z,1028.92
2018-12-25T01:39:45.948Z,1028.91
2018-12-25T01:40:46.636Z,1028.90
2018-12-25T01:41:47.280Z,1028.91
2018-12-25T01:42:47.978Z,1028.91
2018-12-25T01:43:48.626Z,1028.93
2018-12-25T01:44:49.348Z,1028.91
2018-12-25T01:45:49.967Z,1028.92
2018-12-25T01:46:50.670Z,1028.91
2018-12-25T01:47:51.326Z,1028.91
2018-12-25T01:48:52.016Z,1028.88
2018-12-25T01:49:52.669Z,1028.91
2018-12-25T01:50:53.358Z,1028.93
2018-12-25T01:51:54.013Z,1028.95
2018-12-25T01:52:54.780Z,1028.97
2018-12-25T01:53:55.431Z,1028.94
2018-12-25T01:55:04.830Z,1028.99
2018-12-25T01:56:05.473Z,1029.00
2018-12-25T01:57:14.772Z,1028.96
2018-12-25T01:58:15.420Z,1028.99
2018-12-25T01:59:16.119Z,1028.99
2018-12-25T02:00:16.773Z,1029.00
2018-12-25T02:01:19.511Z,1029.01
2018-12-25T02:02:20.000Z,1029.02
2018-12-25T02:03:22.747Z,1029.07
2018-12-25T02:04:23.412Z,1029.07
2018-12-25T02:05:26.091Z,1029.19
2018-12-25T02:06:26.737Z,1029.14
2018-12-25T02:07:27.533Z,1029.16
2018-12-25T02:08:28.111Z,1029.21
2018-12-25T02:09:30.828Z,1029.22
2018-12-25T02:10:31.477Z,1029.25
2018-12-25T02:11:32.211Z,1029.19
2018-12-25T02:12:32.865Z,1029.21
2018-12-25T02:13:33.547Z,1029.21
2018-12-25T02:14:34.213Z,1029.21
2018-12-25T02:15:35.062Z,1029.16
2018-12-25T02:16:35.707Z,1029.20
2018-12-25T02:17:37.430Z,1029.20
2018-12-25T02:18:38.076Z,1029.21
2018-12-25T02:19:40.323Z,1029.15
2018-12-25T02:20:39.420Z,1029.14
2018-12-25T02:21:40.121Z,1029.14
2018-12-25T02:22:40.765Z,1029.17
2018-12-25T02:23:41.472Z,1029.14
2018-12-25T02:24:42.121Z,1029.13
2018-12-25T02:26:54.397Z,1029.14
2018-12-25T02:27:55.110Z,1029.21
2018-12-25T02:28:55.756Z,1029.14
2018-12-25T02:29:56.479Z,1029.08
2018-12-25T02:30:57.134Z,1029.09
2018-12-25T02:31:57.800Z,1029.13
2018-12-25T02:32:58.449Z,1029.09
2018-12-25T02:33:59.146Z,1029.13
2018-12-25T02:34:59.788Z,1029.12
2018-12-25T02:36:07.252Z,1029.07
2018-12-25T02:37:07.907Z,1029.07
2018-12-25T02:38:09.620Z,1029.08
2018-12-25T02:39:10.263Z,1029.04
2018-12-25T02:40:10.958Z,1029.02
2018-12-25T02:41:11.625Z,1028.93
2018-12-25T02:42:12.301Z,1029.00
2018-12-25T02:43:12.952Z,1029.01
2018-12-25T02:44:13.651Z,1028.98
2018-12-25T02:45:14.294Z,1028.95
2018-12-25T02:46:14.992Z,1028.98
2018-12-25T02:47:15.644Z,1028.94
2018-12-25T02:48:16.335Z,1028.96
2018-12-25T02:49:18.369Z,1028.99
2018-12-25T02:50:17.678Z,1029.02
2018-12-25T02:51:18.326Z,1029.02
2018-12-25T02:52:19.024Z,1028.96
2018-12-25T02:53:19.677Z,1028.98
2018-12-25T02:54:20.374Z,1028.95
2018-12-25T02:55:21.017Z,1028.96
2018-12-25T02:56:21.714Z,1028.96
2018-12-25T02:57:22.361Z,1028.88
2018-12-25T02:58:23.061Z,1028.94
2018-12-25T02:59:23.710Z,1028.93
2018-12-25T03:00:24.408Z,1028.88
2018-12-25T03:01:25.048Z,1028.88
2018-12-25T03:02:25.746Z,1028.85
2018-12-25T03:03:26.398Z,1028.85
2018-12-25T03:04:27.094Z,1028.82
2018-12-25T03:05:27.739Z,1028.83
2018-12-25T03:06:28.436Z,1028.83
2018-12-25T03:07:29.084Z,1028.83
2018-12-25T03:08:29.788Z,1028.80
2018-12-25T03:09:30.439Z,1028.81
2018-12-25T03:10:31.130Z,1028.86
2018-12-25T03:11:32.091Z,1028.86
2018-12-25T03:12:32.788Z,1028.82
2018-12-25T03:13:33.430Z,1028.81
2018-12-25T03:14:34.126Z,1028.81
2018-12-25T03:15:34.776Z,1028.79
2018-12-25T03:16:35.476Z,1028.79
2018-12-25T03:17:36.123Z,1028.78
2018-12-25T03:18:36.814Z,1028.72
2018-12-25T03:19:38.006Z,1028.73
2018-12-25T03:20:38.577Z,1028.73
2018-12-25T03:21:39.222Z,1028.74
2018-12-25T03:22:39.919Z,1028.66
2018-12-25T03:23:40.565Z,1028.64
2018-12-25T03:24:41.262Z,1028.69
2018-12-25T03:25:41.906Z,1028.65
2018-12-25T03:26:42.621Z,1028.63
2018-12-25T03:27:43.265Z,1028.62
2018-12-25T03:28:43.954Z,1028.61
2018-12-25T03:29:44.597Z,1028.56
2018-12-25T03:30:45.300Z,1028.56
2018-12-25T03:31:45.948Z,1028.54
2018-12-25T03:32:46.653Z,1028.54
2018-12-25T03:33:47.300Z,1028.57
2018-12-25T03:34:47.985Z,1028.57
2018-12-25T03:35:48.657Z,1028.55
2018-12-25T03:36:49.344Z,1028.56
2018-12-25T03:37:49.972Z,1028.56
2018-12-25T03:38:50.677Z,1028.59
2018-12-25T03:39:51.425Z,1028.55
2018-12-25T03:40:52.020Z,1028.55
2018-12-25T03:41:52.668Z,1028.54
2018-12-25T03:42:53.372Z,1028.53
2018-12-25T03:43:54.014Z,1028.56
2018-12-25T03:44:54.717Z,1028.48
2018-12-25T03:45:55.356Z,1028.53
2018-12-25T03:47:03.790Z,1028.53
2018-12-25T03:48:04.441Z,1028.54
2018-12-25T03:49:05.143Z,1028.49
2018-12-25T03:50:10.802Z,1028.50
2018-12-25T03:51:13.240Z,1028.50
2018-12-25T03:52:13.884Z,1028.49
2018-12-25T03:53:14.583Z,1028.45
2018-12-25T03:54:15.228Z,1028.45
2018-12-25T03:55:15.929Z,1028.45
2018-12-25T03:56:16.570Z,1028.44
2018-12-25T03:57:17.276Z,1028.44
2018-12-25T03:58:17.924Z,1028.41
2018-12-25T03:59:18.615Z,1028.49
2018-12-25T04:00:19.261Z,1028.45
2018-12-25T04:01:19.861Z,1028.49
2018-12-25T04:02:20.502Z,1028.50
2018-12-25T04:03:21.203Z,1028.50
2018-12-25T04:04:21.852Z,1028.45
2018-12-25T04:05:22.552Z,1028.48
2018-12-25T04:06:23.195Z,1028.44
2018-12-25T04:07:23.904Z,1028.45
2018-12-25T04:08:24.550Z,1028.45
2018-12-25T04:09:27.288Z,1028.44
2018-12-25T04:10:27.938Z,1028.47
2018-12-25T04:11:28.639Z,1028.49
2018-12-25T04:12:29.286Z,1028.49
2018-12-25T04:13:30.065Z,1028.46
2018-12-25T04:14:30.626Z,1028.43
2018-12-25T04:15:31.323Z,1028.51
2018-12-25T04:16:31.971Z,1028.51
2018-12-25T04:17:32.667Z,1028.51
2018-12-25T04:18:33.315Z,1028.50
2018-12-25T04:19:34.011Z,1028.54
2018-12-25T04:20:34.662Z,1028.54
2018-12-25T04:21:35.354Z,1028.55
2018-12-25T04:22:36.075Z,1028.62
2018-12-25T04:23:36.700Z,1028.61
2018-12-25T04:24:37.349Z,1028.56
2018-12-25T04:25:38.250Z,1028.55
2018-12-25T04:26:38.878Z,1028.51
2018-12-25T04:27:39.519Z,1028.57
2018-12-25T04:28:40.168Z,1028.60
2018-12-25T04:29:40.830Z,1028.53
2018-12-25T04:30:41.555Z,1028.53
2018-12-25T04:31:42.130Z,1028.53
2018-12-25T04:32:42.771Z,1028.54
2018-12-25T04:33:43.504Z,1028.58
2018-12-25T04:34:44.162Z,1028.55
2018-12-25T04:35:44.848Z,1028.55
2018-12-25T04:36:45.500Z,1028.54
2018-12-25T04:37:53.769Z,1028.51
2018-12-25T04:38:54.426Z,1028.47
2018-12-25T04:40:01.775Z,1028.46
2018-12-25T04:41:02.429Z,1028.40
2018-12-25T04:42:05.256Z,1028.45
2018-12-25T04:43:06.169Z,1028.47
2018-12-25T04:44:14.814Z,1028.46
2018-12-25T04:45:15.469Z,1028.49
2018-12-25T04:46:23.825Z,1028.49
2018-12-25T04:47:24.482Z,1028.49
2018-12-25T04:48:25.165Z,1028.48
2018-12-25T04:49:25.908Z,1028.47
2018-12-25T04:50:29.355Z,1028.49
2018-12-25T04:51:27.158Z,1028.50
2018-12-25T04:52:28.881Z,1028.49
2018-12-25T04:53:29.541Z,1028.51
2018-12-25T04:54:31.257Z,1028.52
2018-12-25T04:55:31.908Z,1028.53
2018-12-25T04:56:32.594Z,1028.54
2018-12-25T04:57:33.247Z,1028.52
2018-12-25T04:58:33.940Z,1028.53
2018-12-25T04:59:34.591Z,1028.52
2018-12-25T05:00:35.285Z,1028.52
2018-12-25T05:01:35.935Z,1028.53
2018-12-25T05:02:37.654Z,1028.49
2018-12-25T05:03:38.305Z,1028.52
2018-12-25T05:04:41.049Z,1028.46
2018-12-25T05:05:41.763Z,1028.48
2018-12-25T05:06:43.414Z,1028.49
2018-12-25T05:07:44.066Z,1028.52
2018-12-25T05:08:52.341Z,1028.58
2018-12-25T05:09:53.169Z,1028.58
2018-12-25T05:11:02.797Z,1028.61
2018-12-25T05:12:03.454Z,1028.59
2018-12-25T05:13:20.836Z,1028.59
2018-12-25T05:14:21.481Z,1028.56
2018-12-25T05:15:22.177Z,1028.62
2018-12-25T05:16:22.824Z,1028.61
2018-12-25T05:17:32.328Z,1028.58
2018-12-25T05:18:32.984Z,1028.60
2018-12-25T05:19:33.680Z,1028.68
2018-12-25T05:20:38.025Z,1028.61
2018-12-25T05:21:35.025Z,1028.63
2018-12-25T05:22:35.682Z,1028.60
2018-12-25T05:23:36.371Z,1028.59
2018-12-25T05:24:37.025Z,1028.61
2018-12-25T05:25:37.718Z,1028.64
2018-12-25T05:26:38.362Z,1028.66
2018-12-25T05:27:39.132Z,1028.66
2018-12-25T05:28:39.707Z,1028.64
2018-12-25T05:29:40.401Z,1028.65
2018-12-25T05:30:41.046Z,1028.61
2018-12-25T05:31:49.322Z,1028.63
2018-12-25T05:32:49.974Z,1028.60
2018-12-25T05:33:50.667Z,1028.59
2018-12-25T05:34:51.315Z,1028.57
2018-12-25T05:35:54.066Z,1028.64
2018-12-25T05:36:54.719Z,1028.61
2018-12-25T05:37:55.402Z,1028.63
2018-12-25T05:38:56.054Z,1028.65
2018-12-25T05:39:56.746Z,1028.59
2018-12-25T05:40:57.395Z,1028.59
2018-12-25T05:41:58.100Z,1028.57
2018-12-25T05:42:58.772Z,1028.57
2018-12-25T05:45:09.896Z,1028.59
2018-12-25T05:46:11.643Z,1028.61
2018-12-25T05:47:12.289Z,1028.66
2018-12-25T05:48:12.979Z,1028.63
2018-12-25T05:49:13.943Z,1028.64
2018-12-25T05:50:16.679Z,1028.59
2018-12-25T05:51:17.335Z,1028.62
2018-12-25T05:52:20.078Z,1028.62
2018-12-25T05:53:20.728Z,1028.65
2018-12-25T05:54:22.450Z,1028.66
2018-12-25T05:55:23.097Z,1028.63
2018-12-25T05:56:24.816Z,1028.55
2018-12-25T05:57:25.466Z,1028.57
2018-12-25T05:58:40.806Z,1028.59
2018-12-25T05:59:41.454Z,1028.55
2018-12-25T06:00:43.170Z,1028.57
2018-12-25T06:01:43.825Z,1028.55
2018-12-25T06:02:52.324Z,1028.56
2018-12-25T06:03:52.952Z,1028.59
2018-12-25T06:04:53.651Z,1028.62
2018-12-25T06:05:54.573Z,1028.61
2018-12-25T06:06:56.387Z,1028.60
2018-12-25T06:07:56.980Z,1028.63
2018-12-25T06:08:58.695Z,1028.64
2018-12-25T06:09:59.341Z,1028.65
2018-12-25T06:11:00.041Z,1028.67
2018-12-25T06:12:00.690Z,1028.73
2018-12-25T06:13:08.349Z,1028.71
2018-12-25T06:14:08.997Z,1028.70
2018-12-25T06:15:09.690Z,1028.70
2018-12-25T06:16:10.341Z,1028.72
2018-12-25T06:17:11.033Z,1028.69
2018-12-25T06:18:11.684Z,1028.73
2018-12-25T06:19:12.384Z,1028.71
2018-12-25T06:20:13.029Z,1028.68
2018-12-25T06:21:13.904Z,1028.77
2018-12-25T06:22:14.662Z,1028.78
2018-12-25T06:23:15.315Z,1028.74
2018-12-25T06:24:17.033Z,1028.78
2018-12-25T06:25:17.688Z,1028.74
2018-12-25T06:26:18.454Z,1028.73
2018-12-25T06:27:19.020Z,1028.74
2018-12-25T06:28:19.723Z,1028.72
2018-12-25T06:29:20.366Z,1028.76
2018-12-25T06:30:21.069Z,1028.72
2018-12-25T06:31:21.728Z,1028.75
2018-12-25T06:32:22.414Z,1028.74
2018-12-25T06:33:23.065Z,1028.77
2018-12-25T06:34:23.758Z,1028.74
2018-12-25T06:35:24.443Z,1028.74
2018-12-25T06:36:25.103Z,1028.75
2018-12-25T06:37:25.751Z,1028.73
2018-12-25T06:38:26.446Z,1028.72
2018-12-25T06:39:27.211Z,1028.75
2018-12-25T06:40:27.978Z,1028.72
2018-12-25T06:41:28.545Z,1028.68
2018-12-25T06:42:29.242Z,1028.63
2018-12-25T06:43:29.889Z,1028.65
2018-12-25T06:44:30.588Z,1028.68
2018-12-25T06:45:31.244Z,1028.64
2018-12-25T06:46:31.930Z,1028.66
2018-12-25T06:47:32.578Z,1028.72
2018-12-25T06:48:33.277Z,1028.72
2018-12-25T06:49:33.923Z,1028.72
2018-12-25T06:50:34.620Z,1028.76
2018-12-25T06:51:35.267Z,1028.75
2018-12-25T06:52:35.969Z,1028.76
2018-12-25T06:53:36.621Z,1028.78
2018-12-25T06:54:39.363Z,1028.75
2018-12-25T06:55:37.963Z,1028.71
2018-12-25T06:56:38.735Z,1028.68
2018-12-25T06:57:39.314Z,1028.72
2018-12-25T06:58:40.002Z,1028.72
2018-12-25T06:59:40.652Z,1028.68
2018-12-25T07:00:41.347Z,1028.72
2018-12-25T07:01:41.996Z,1028.70
2018-12-25T07:02:42.681Z,1028.63
2018-12-25T07:03:43.462Z,1028.65
2018-12-25T07:04:44.024Z,1028.61
2018-12-25T07:05:44.676Z,1028.59
2018-12-25T07:06:45.371Z,1028.56
2018-12-25T07:07:46.033Z,1028.56
2018-12-25T07:08:46.711Z,1028.55
2018-12-25T07:09:47.371Z,1028.49
2018-12-25T07:10:48.060Z,1028.54
2018-12-25T07:11:48.709Z,1028.53
2018-12-25T07:12:49.409Z,1028.48
2018-12-25T07:13:50.055Z,1028.44
2018-12-25T07:14:50.734Z,1028.43
2018-12-25T07:15:51.385Z,1028.38
2018-12-25T07:16:52.075Z,1028.32
2018-12-25T07:17:52.778Z,1028.33
2018-12-25T07:18:53.423Z,1028.33
2018-12-25T07:19:54.075Z,1028.37
2018-12-25T07:20:54.770Z,1028.27
2018-12-25T07:21:55.421Z,1028.28
2018-12-25T07:22:56.112Z,1028.32
2018-12-25T07:23:56.763Z,1028.32
2018-12-25T07:24:57.969Z,1028.40
2018-12-25T07:25:58.619Z,1028.38
2018-12-25T07:26:59.309Z,1028.34
2018-12-25T07:27:59.960Z,1028.39
2018-12-25T07:29:00.655Z,1028.39
2018-12-25T07:30:01.311Z,1028.38
2018-12-25T07:31:02.021Z,1028.32
2018-12-25T07:32:02.647Z,1028.38
2018-12-25T07:33:05.234Z,1028.36
2018-12-25T07:34:05.940Z,1028.31
2018-12-25T07:35:06.598Z,1028.30
2018-12-25T07:36:07.250Z,1028.28
2018-12-25T07:37:07.980Z,1028.26
2018-12-25T07:38:08.412Z,1028.28
2018-12-25T07:39:09.164Z,1028.23
2018-12-25T07:40:09.804Z,1028.17
2018-12-25T07:41:11.538Z,1028.19
2018-12-25T07:42:12.188Z,1028.16
2018-12-25T07:43:12.837Z,1028.22
2018-12-25T07:44:20.260Z,1028.23
2018-12-25T07:45:20.937Z,1028.24
2018-12-25T07:46:22.583Z,1028.24
2018-12-25T07:47:23.223Z,1028.27
2018-12-25T07:48:23.965Z,1028.26
2018-12-25T07:49:24.607Z,1028.35
2018-12-25T07:50:25.317Z,1028.39
2018-12-25T07:51:25.935Z,1028.41
2018-12-25T07:52:26.894Z,1028.45
2018-12-25T07:53:27.309Z,1028.47
2018-12-25T07:54:28.020Z,1028.49
2018-12-25T07:55:28.671Z,1028.46
2018-12-25T07:56:29.356Z,1028.51
2018-12-25T07:57:30.002Z,1028.55
2018-12-25T07:58:30.702Z,1028.53
2018-12-25T07:59:31.348Z,1028.53
2018-12-25T08:00:32.051Z,1028.56
2018-12-25T08:01:32.703Z,1028.54
2018-12-25T08:02:33.392Z,1028.54
2018-12-25T08:03:34.046Z,1028.57
2018-12-25T08:04:34.739Z,1028.48
2018-12-25T08:05:35.406Z,1028.50
2018-12-25T08:06:36.073Z,1028.56
2018-12-25T08:07:36.734Z,1028.52
2018-12-25T08:08:37.422Z,1028.51
2018-12-25T08:09:38.077Z,1028.53
2018-12-25T08:10:38.771Z,1028.51
2018-12-25T08:11:39.428Z,1028.53
2018-12-25T08:12:40.068Z,1028.50
2018-12-25T08:13:40.731Z,1028.46
2018-12-25T08:14:41.389Z,1028.49
2018-12-25T08:15:42.083Z,1028.56
2018-12-25T08:16:42.938Z,1028.51
2018-12-25T08:17:43.632Z,1028.50
2018-12-25T08:18:44.280Z,1028.50
2018-12-25T08:19:44.976Z,1028.49
2018-12-25T08:20:45.625Z,1028.50
2018-12-25T08:21:46.319Z,1028.51
2018-12-25T08:22:46.964Z,1028.50
2018-12-25T08:23:47.668Z,1028.51
2018-12-25T08:24:48.320Z,1028.52
2018-12-25T08:25:49.018Z,1028.53
2018-12-25T08:26:49.660Z,1028.49
2018-12-25T08:27:50.362Z,1028.49
2018-12-25T08:28:51.014Z,1028.48
2018-12-25T08:29:51.705Z,1028.49
2018-12-25T08:30:52.353Z,1028.47
2018-12-25T08:31:53.054Z,1028.46
2018-12-25T08:32:53.995Z,1028.37
2018-12-25T08:33:54.706Z,1028.38
2018-12-25T08:34:55.354Z,1028.46
2018-12-25T08:35:56.051Z,1028.46
2018-12-25T08:36:56.693Z,1028.46
2018-12-25T08:37:57.417Z,1028.46
2018-12-25T08:38:58.036Z,1028.40
2018-12-25T08:39:58.741Z,1028.42
2018-12-25T08:40:59.400Z,1028.41
2018-12-25T08:42:00.086Z,1028.51
2018-12-25T08:43:00.736Z,1028.51
2018-12-25T08:44:01.427Z,1028.45
2018-12-25T08:45:02.091Z,1028.48
2018-12-25T08:46:02.778Z,1028.58
2018-12-25T08:47:03.442Z,1028.51
2018-12-25T08:48:04.076Z,1028.51
2018-12-25T08:49:04.717Z,1028.60
2018-12-25T08:50:05.374Z,1028.50
2018-12-25T08:51:06.023Z,1028.46
2018-12-25T08:52:06.677Z,1028.49
2018-12-25T08:53:07.314Z,1028.51
2018-12-25T08:54:07.964Z,1028.45
2018-12-25T08:55:08.610Z,1028.43
2018-12-25T08:56:09.262Z,1028.43
2018-12-25T08:57:10.421Z,1028.42
2018-12-25T08:58:11.062Z,1028.39
2018-12-25T08:59:11.713Z,1028.39
2018-12-25T09:00:12.362Z,1028.35
2018-12-25T09:01:13.019Z,1028.35
2018-12-25T09:02:13.682Z,1028.35
2018-12-25T09:03:14.315Z,1028.35
2018-12-25T09:04:14.960Z,1028.33
2018-12-25T09:05:15.618Z,1028.30
2018-12-25T09:06:16.268Z,1028.26
2018-12-25T09:07:17.171Z,1028.25
2018-12-25T09:08:17.828Z,1028.26
2018-12-25T09:09:18.466Z,1028.21
2018-12-25T09:10:19.126Z,1028.21
2018-12-25T09:11:19.834Z,1028.24
2018-12-25T09:12:20.477Z,1028.28
2018-12-25T09:13:21.198Z,1028.27
2018-12-25T09:14:21.843Z,1028.32
2018-12-25T09:15:22.522Z,1028.36
2018-12-25T09:16:23.178Z,1028.32
2018-12-25T09:17:23.859Z,1028.30
2018-12-25T09:18:24.530Z,1028.34
2018-12-25T09:19:25.166Z,1028.34
2018-12-25T09:20:25.818Z,1028.35
2018-12-25T09:21:26.473Z,1028.27
2018-12-25T09:22:27.122Z,1028.25
2018-12-25T09:23:27.767Z,1028.19
2018-12-25T09:24:28.666Z,1028.17
2018-12-25T09:25:29.317Z,1028.15
2018-12-25T09:26:29.956Z,1028.10
2018-12-25T09:27:30.619Z,1028.09
2018-12-25T09:28:31.268Z,1028.09
2018-12-25T09:29:31.940Z,1028.04
2018-12-25T09:30:32.584Z,1028.09
2018-12-25T09:31:33.231Z,1028.16
2018-12-25T09:32:33.898Z,1028.08
2018-12-25T09:33:34.549Z,1028.10
2018-12-25T09:34:35.201Z,1028.12
2018-12-25T09:35:35.879Z,1028.14
2018-12-25T09:36:36.540Z,1028.13
2018-12-25T09:37:37.213Z,1028.15
2018-12-25T09:38:37.875Z,1028.23
2018-12-25T09:39:38.557Z,1028.20
2018-12-25T09:40:39.208Z,1028.16
2018-12-25T09:41:39.856Z,1028.24
2018-12-25T09:42:40.504Z,1028.24
2018-12-25T09:43:41.250Z,1028.28
2018-12-25T09:44:41.904Z,1028.25
2018-12-25T09:45:42.543Z,1028.30
2018-12-25T09:46:43.189Z,1028.28
2018-12-25T09:47:43.940Z,1028.30
2018-12-25T09:48:44.587Z,1028.32
2018-12-25T09:49:45.286Z,1028.33
2018-12-25T09:50:45.930Z,1028.36
2018-12-25T09:51:54.383Z,1028.34
2018-12-25T09:52:47.231Z,1028.33
2018-12-25T09:53:47.878Z,1028.35
2018-12-25T09:54:48.520Z,1028.36
2018-12-25T09:55:49.180Z,1028.39
2018-12-25T09:56:49.817Z,1028.41
2018-12-25T09:57:50.473Z,1028.38
2018-12-25T09:58:51.117Z,1028.43
2018-12-25T09:59:51.764Z,1028.45
2018-12-25T10:00:52.542Z,1028.53
2018-12-25T10:01:53.186Z,1028.51
2018-12-25T10:02:53.853Z,1028.54
2018-12-25T10:03:54.497Z,1028.53
2018-12-25T10:04:56.578Z,1028.58
2018-12-25T10:05:56.870Z,1028.64
2018-12-25T10:06:57.519Z,1028.57
2018-12-25T10:07:58.230Z,1028.62
2018-12-25T10:08:58.887Z,1028.61
2018-12-25T10:09:59.525Z,1028.57
2018-12-25T10:11:00.175Z,1028.56
2018-12-25T10:12:00.832Z,1028.56
2018-12-25T10:13:01.513Z,1028.55
2018-12-25T10:14:02.172Z,1028.52
2018-12-25T10:15:02.921Z,1028.53
2018-12-25T10:16:03.574Z,1028.55
2018-12-25T10:17:04.248Z,1028.58
2018-12-25T10:18:04.892Z,1028.63
2018-12-25T10:19:05.536Z,1028.63
2018-12-25T10:20:06.203Z,1028.63
2018-12-25T10:21:06.842Z,1028.65
2018-12-25T10:22:07.489Z,1028.64
2018-12-25T10:23:08.137Z,1028.66
2018-12-25T10:24:08.794Z,1028.66
2018-12-25T10:25:09.439Z,1028.61
2018-12-25T10:26:10.100Z,1028.64
2018-12-25T10:27:10.770Z,1028.63
2018-12-25T10:28:11.435Z,1028.62
2018-12-25T10:29:12.115Z,1028.64
2018-12-25T10:30:12.765Z,1028.61
2018-12-25T10:31:13.479Z,1028.67
2018-12-25T10:32:14.105Z,1028.72
2018-12-25T10:33:14.809Z,1028.62
2018-12-25T10:34:15.455Z,1028.63
2018-12-25T10:35:16.188Z,1028.61
2018-12-25T10:36:16.836Z,1028.54
2018-12-25T10:37:17.602Z,1028.52
2018-12-25T10:38:18.247Z,1028.44
2018-12-25T10:39:18.949Z,1028.47
2018-12-25T10:40:19.601Z,1028.39
2018-12-25T10:41:20.287Z,1028.37
2018-12-25T10:42:20.936Z,1028.37
2018-12-25T10:43:21.631Z,1028.40
2018-12-25T10:44:22.283Z,1028.35
2018-12-25T10:45:22.976Z,1028.40
2018-12-25T10:46:23.628Z,1028.42
2018-12-25T10:47:24.294Z,1028.42
2018-12-25T10:48:25.061Z,1028.44
2018-12-25T10:49:25.699Z,1028.43
2018-12-25T10:50:26.355Z,1028.42
2018-12-25T10:51:27.111Z,1028.46
2018-12-25T10:52:27.765Z,1028.45
2018-12-25T10:53:28.464Z,1028.46
2018-12-25T10:54:29.108Z,1028.45
2018-12-25T10:55:29.799Z,1028.39
2018-12-25T10:56:30.450Z,1028.40
2018-12-25T10:57:31.103Z,1028.34
2018-12-25T10:58:31.868Z,1028.38
2018-12-25T10:59:32.520Z,1028.35
2018-12-25T11:00:33.171Z,1028.32
2018-12-25T11:01:33.828Z,1028.36
2018-12-25T11:02:34.491Z,1028.37
2018-12-25T11:03:35.150Z,1028.37
2018-12-25T11:04:35.799Z,1028.36
2018-12-25T11:05:36.447Z,1028.40
2018-12-25T11:06:37.096Z,1028.43
2018-12-25T11:07:37.747Z,1028.45
2018-12-25T11:08:38.394Z,1028.41
2018-12-25T11:09:39.113Z,1028.40
2018-12-25T11:10:39.763Z,1028.41
2018-12-25T11:11:40.478Z,1028.36
2018-12-25T11:12:41.108Z,1028.36
2018-12-25T11:13:41.954Z,1028.37
2018-12-25T11:14:42.615Z,1028.34
2018-12-25T11:15:44.326Z,1028.35
2018-12-25T11:16:44.976Z,1028.33
2018-12-25T11:17:45.772Z,1028.31
2018-12-25T11:18:49.147Z,1028.36
2018-12-25T11:19:47.117Z,1028.33
2018-12-25T11:20:47.773Z,1028.33
2018-12-25T11:21:48.418Z,1028.30
2018-12-25T11:22:49.073Z,1028.31
2018-12-25T11:23:49.730Z,1028.36
2018-12-25T11:24:50.385Z,1028.38
2018-12-25T11:25:51.019Z,1028.37
2018-12-25T14:03:28.774Z,1028.27
2018-12-25T14:04:29.420Z,1028.30
2018-12-25T14:05:30.077Z,1028.30
2018-12-25T14:06:30.716Z,1028.33
2018-12-25T14:07:31.358Z,1028.30
2018-12-25T14:08:32.015Z,1028.36
2018-12-25T14:09:32.658Z,1028.31
2018-12-25T14:10:33.317Z,1028.34
2018-12-25T14:11:34.049Z,1028.34
2018-12-25T14:12:34.696Z,1028.37
2018-12-25T14:13:35.347Z,1028.33
2018-12-25T14:14:35.997Z,1028.33
2018-12-25T14:15:36.659Z,1028.38
2018-12-25T14:16:37.296Z,1028.39
2018-12-25T14:17:37.960Z,1028.39
2018-12-25T14:18:38.611Z,1028.40
2018-12-25T14:19:39.298Z,1028.44
2018-12-25T14:20:40.001Z,1028.45
2018-12-25T14:21:40.602Z,1028.45
2018-12-25T14:22:41.248Z,1028.42
2018-12-25T14:23:41.904Z,1028.45
2018-12-25T14:24:42.706Z,1028.42
2018-12-25T14:25:43.353Z,1028.40
2018-12-25T14:26:44.013Z,1028.43
2018-12-25T14:27:44.818Z,1028.37
2018-12-25T14:28:45.465Z,1028.40
2018-12-25T14:29:47.295Z,1028.36
2018-12-25T14:30:47.940Z,1028.40
2018-12-25T14:31:48.848Z,1028.39
2018-12-25T14:32:49.481Z,1028.34
2018-12-25T14:33:50.128Z,1028.36
2018-12-25T14:34:50.780Z,1028.33
2018-12-25T14:35:51.791Z,1028.34
2018-12-25T14:36:52.566Z,1028.30
2018-12-25T14:37:53.205Z,1028.25
2018-12-25T14:38:54.015Z,1028.28
2018-12-25T14:39:54.654Z,1028.27
2018-12-25T14:40:55.459Z,1028.21
2018-12-25T14:41:56.106Z,1028.27
2018-12-25T14:42:56.761Z,1028.27
2018-12-25T14:44:04.956Z,1028.27
2018-12-25T14:44:58.052Z,1028.21
2018-12-25T14:45:58.793Z,1028.28
2018-12-25T14:46:59.421Z,1028.22
2018-12-25T14:48:00.078Z,1028.25
2018-12-25T14:49:00.842Z,1028.32
2018-12-25T14:50:01.483Z,1028.27
2018-12-25T14:51:02.134Z,1028.21
2018-12-25T14:52:02.788Z,1028.23
2018-12-25T14:53:03.431Z,1028.18
2018-12-25T14:54:04.078Z,1028.13
2018-12-25T14:55:04.735Z,1028.08
2018-12-25T14:56:05.386Z,1028.17